createdAt,value
2023-07-02T00:00:17.107Z,99771.27
2023-07-02T00:02:47.747Z,99766.73
2023-07-02T00:05:15.400Z,99771.77
2023-07-02T00:07:43.083Z,99775.63
2023-07-02T00:10:12.060Z,99774.94
2023-07-02T00:12:39.814Z,99773.15
2023-07-02T00:15:08.123Z,99770.34
2023-07-02T00:17:35.793Z,99768.12
2023-07-02T00:20:10.237Z,99773.91
2023-07-02T00:22:38.060Z,99774.40
2023-07-02T00:25:05.824Z,99775.66
2023-07-02T00:27:33.501Z,99772.68
2023-07-02T00:30:01.167Z,99770.48
2023-07-02T00:32:29.357Z,99767.10
2023-07-02T00:34:57.073Z,99773.15
2023-07-02T00:37:24.631Z,99772.72
2023-07-02T00:39:53.645Z,99775.73
2023-07-02T00:42:21.797Z,99775.60
2023-07-02T00:44:49.493Z,99775.34
2023-07-02T00:47:18.038Z,99774.86
2023-07-02T00:49:46.113Z,99777.09
2023-07-02T00:52:13.688Z,99780.79
2023-07-02T00:54:42.252Z,99778.41
2023-07-02T00:57:10.461Z,99779.39
2023-07-02T00:59:39.495Z,99777.11
2023-07-02T01:02:09.381Z,99776.46
2023-07-02T01:04:38.788Z,99775.10
2023-07-02T01:07:11.273Z,99775.89
2023-07-02T01:09:39.081Z,99778.81
2023-07-02T01:12:09.431Z,99773.98
2023-07-02T01:14:41.550Z,99770.46
2023-07-02T01:17:09.233Z,99767.63
2023-07-02T01:19:43.065Z,99771.12
2023-07-02T01:22:10.799Z,99766.31
2023-07-02T01:24:40.131Z,99765.86
2023-07-02T01:27:07.765Z,99767.35
2023-07-02T01:29:38.477Z,99769.13
2023-07-02T01:32:06.818Z,99770.77
2023-07-02T01:34:34.542Z,99770.77
2023-07-02T01:37:03.073Z,99767.96
2023-07-02T01:39:30.685Z,99772.11
2023-07-02T01:42:08.786Z,99771.38
2023-07-02T01:44:37.106Z,99773.13
2023-07-02T01:47:05.238Z,99775.73
2023-07-02T01:49:33.931Z,99776.70
2023-07-02T01:52:01.703Z,99776.04
2023-07-02T01:54:29.652Z,99780.00
2023-07-02T01:56:57.961Z,99779.88
2023-07-02T01:59:25.914Z,99780.05
2023-07-02T02:01:53.663Z,99776.08
2023-07-02T02:04:21.366Z,99780.74
2023-07-02T02:06:49.201Z,99779.88
2023-07-02T02:09:16.971Z,99779.72
2023-07-02T02:11:49.236Z,99775.84
2023-07-02T02:14:17.560Z,99776.14
2023-07-02T02:16:48.910Z,99777.02
2023-07-02T02:19:17.450Z,99776.33
2023-07-02T02:21:45.449Z,99780.02
2023-07-02T02:24:14.510Z,99780.66
2023-07-02T02:26:42.172Z,99778.63
2023-07-02T02:29:09.835Z,99781.98
2023-07-02T02:31:37.695Z,99780.84
2023-07-02T02:34:05.994Z,99782.73
2023-07-02T02:36:34.156Z,99784.83
2023-07-02T02:39:01.920Z,99783.53
2023-07-02T02:41:30.292Z,99782.96
2023-07-02T02:43:57.964Z,99785.62
2023-07-02T02:46:25.678Z,99785.83
2023-07-02T02:48:54.113Z,99783.02
2023-07-02T02:51:21.886Z,99785.39
2023-07-02T02:53:49.525Z,99787.59
2023-07-02T02:56:17.694Z,99785.08
2023-07-02T02:58:45.385Z,99781.36
2023-07-02T03:01:13.692Z,99784.20
2023-07-02T03:03:46.430Z,99784.38
2023-07-02T03:06:16.066Z,99788.36
2023-07-02T03:08:44.180Z,99791.02
2023-07-02T03:11:12.091Z,99796.23
2023-07-02T03:13:40.112Z,99797.09
2023-07-02T03:16:08.345Z,99797.60
2023-07-02T03:18:36.372Z,99796.53
2023-07-02T03:21:04.142Z,99791.33
2023-07-02T03:23:31.810Z,99794.88
2023-07-02T03:25:59.489Z,99793.60
2023-07-02T03:28:27.237Z,99790.73
2023-07-02T03:30:54.935Z,99787.48
2023-07-02T03:33:22.678Z,99786.95
2023-07-02T03:35:50.220Z,99794.82
2023-07-02T03:38:17.939Z,99801.94
2023-07-02T03:40:46.355Z,99801.20
2023-07-02T03:43:14.541Z,99804.22
2023-07-02T03:45:42.211Z,99805.67
2023-07-02T03:48:09.899Z,99804.92
2023-07-02T03:50:37.656Z,99805.23
2023-07-02T03:53:05.280Z,99804.63
2023-07-02T03:55:33.086Z,99804.27
2023-07-02T03:58:00.716Z,99807.23
2023-07-02T04:00:28.381Z,99808.44
2023-07-02T04:02:56.083Z,99808.03
2023-07-02T04:05:23.794Z,99806.67
2023-07-02T04:07:51.473Z,99810.48
2023-07-02T04:10:19.228Z,99807.27
2023-07-02T04:12:47.019Z,99812.58
2023-07-02T04:15:14.652Z,99818.09
2023-07-02T04:17:42.476Z,99818.23
2023-07-02T04:20:11.429Z,99823.28
2023-07-02T04:22:39.373Z,99820.27
2023-07-02T04:25:18.030Z,99822.02
2023-07-02T04:27:52.221Z,99821.48
2023-07-02T04:30:20.084Z,99823.09
2023-07-02T04:32:48.521Z,99828.33
2023-07-02T04:35:16.217Z,99827.60
2023-07-02T04:37:43.874Z,99829.38
2023-07-02T04:40:11.973Z,99829.14
2023-07-02T04:42:40.338Z,99831.88
2023-07-02T04:45:09.781Z,99829.27
2023-07-02T04:47:38.273Z,99830.09
2023-07-02T04:50:09.379Z,99833.38
2023-07-02T04:52:37.036Z,99832.59
2023-07-02T04:55:05.462Z,99833.89
2023-07-02T04:57:33.272Z,99833.41
2023-07-02T05:00:00.917Z,99835.23
2023-07-02T05:02:28.606Z,99834.69
2023-07-02T05:04:56.493Z,99831.02
2023-07-02T05:07:24.524Z,99830.06
2023-07-02T05:09:54.452Z,99831.65
2023-07-02T05:12:22.097Z,99833.02
2023-07-02T05:14:49.772Z,99834.98
2023-07-02T05:17:17.659Z,99836.98
2023-07-02T05:19:45.407Z,99840.23
2023-07-02T05:22:13.377Z,99841.49
2023-07-02T05:24:42.251Z,99843.20
2023-07-02T05:27:09.952Z,99848.05
2023-07-02T05:29:37.576Z,99848.46
2023-07-02T05:32:06.113Z,99845.23
2023-07-02T05:34:35.266Z,99845.46
2023-07-02T05:37:03.018Z,99847.33
2023-07-02T05:39:32.043Z,99852.29
2023-07-02T05:41:59.683Z,99846.85
2023-07-02T05:44:27.448Z,99843.82
2023-07-02T05:46:55.158Z,99848.23
2023-07-02T05:49:22.970Z,99842.64
2023-07-02T05:51:50.652Z,99842.04
2023-07-02T05:54:18.395Z,99842.50
2023-07-02T05:56:46.083Z,99843.21
2023-07-02T05:59:16.280Z,99838.16
2023-07-02T06:01:45.986Z,99840.41
2023-07-02T06:04:14.089Z,99838.04
2023-07-02T06:06:41.824Z,99841.50
2023-07-02T06:09:09.511Z,99841.41
2023-07-02T06:11:37.149Z,99843.54
2023-07-02T06:14:04.853Z,99847.77
2023-07-02T06:16:32.484Z,99845.58
2023-07-02T06:19:00.303Z,99843.34
2023-07-02T06:21:31.193Z,99842.86
2023-07-02T06:24:00.221Z,99846.50
2023-07-02T06:26:28.124Z,99843.52
2023-07-02T06:28:56.110Z,99842.45
2023-07-02T06:31:23.913Z,99840.46
2023-07-02T06:33:51.742Z,99842.04
2023-07-02T06:36:20.876Z,99844.27
2023-07-02T06:38:48.619Z,99839.45
2023-07-02T06:41:16.793Z,99840.20
2023-07-02T06:43:47.403Z,99840.73
2023-07-02T06:46:15.280Z,99835.05
2023-07-02T06:48:43.253Z,99840.70
2023-07-02T06:51:13.917Z,99840.30
2023-07-02T06:53:42.724Z,99841.23
2023-07-02T06:56:13.297Z,99843.96
2023-07-02T06:58:46.195Z,99841.43
2023-07-02T07:01:13.834Z,99838.27
2023-07-02T07:03:41.424Z,99837.85
2023-07-02T07:06:09.265Z,99841.88
2023-07-02T07:08:43.078Z,99844.41
2023-07-02T07:11:10.871Z,99843.36
2023-07-02T07:13:38.807Z,99844.40
2023-07-02T07:16:06.508Z,99843.19
2023-07-02T07:18:34.440Z,99843.55
2023-07-02T07:21:02.407Z,99847.92
2023-07-02T07:23:30.070Z,99845.31
2023-07-02T07:25:57.832Z,99845.58
2023-07-02T07:28:25.507Z,99845.97
2023-07-02T07:30:53.330Z,99844.86
2023-07-02T07:33:21.273Z,99842.70
2023-07-02T07:35:48.983Z,99842.30
2023-07-02T07:38:16.747Z,99847.14
2023-07-02T07:40:44.722Z,99844.30
2023-07-02T07:43:12.994Z,99844.90
2023-07-02T07:45:40.725Z,99841.16
2023-07-02T07:48:08.576Z,99840.33
2023-07-02T07:50:36.328Z,99841.40
2023-07-02T07:53:04.362Z,99842.91
2023-07-02T07:55:32.082Z,99833.80
2023-07-02T07:57:59.796Z,99831.75
2023-07-02T08:00:28.285Z,99832.88
2023-07-02T08:02:57.075Z,99835.04
2023-07-02T08:05:25.943Z,99833.43
2023-07-02T08:07:55.050Z,99828.84
2023-07-02T08:10:23.035Z,99827.40
2023-07-02T08:12:51.285Z,99827.55
2023-07-02T08:15:19.472Z,99830.05
2023-07-02T08:17:47.138Z,99832.17
2023-07-02T08:20:15.029Z,99830.40
2023-07-02T08:22:42.748Z,99830.14
2023-07-02T08:25:10.412Z,99829.94
2023-07-02T08:27:38.075Z,99829.27
2023-07-02T08:30:06.580Z,99830.70
2023-07-02T08:32:35.006Z,99823.66
2023-07-02T08:35:02.926Z,99823.23
2023-07-02T08:37:30.817Z,99824.21
2023-07-02T08:39:58.742Z,99825.02
2023-07-02T08:42:30.999Z,99826.90
2023-07-02T08:44:59.399Z,99825.41
2023-07-02T08:47:27.060Z,99824.65
2023-07-02T08:49:54.943Z,99821.26
2023-07-02T08:52:22.679Z,99821.20
2023-07-02T08:54:50.451Z,99822.59
2023-07-02T08:57:18.106Z,99819.66
2023-07-02T08:59:46.189Z,99823.92
2023-07-02T09:02:13.859Z,99820.13
2023-07-02T09:04:41.585Z,99821.87
2023-07-02T09:07:10.961Z,99820.40
2023-07-02T09:09:49.031Z,99821.01
2023-07-02T09:12:30.292Z,99818.20
2023-07-02T09:15:07.988Z,99820.27
2023-07-02T09:17:37.593Z,99823.10
2023-07-02T09:20:08.306Z,99818.91
2023-07-02T09:22:36.523Z,99818.34
2023-07-02T09:25:04.812Z,99814.35
2023-07-02T09:27:42.771Z,99813.13
2023-07-02T09:30:16.852Z,99813.09
2023-07-02T09:32:46.118Z,99812.30
2023-07-02T09:35:14.404Z,99811.41
2023-07-02T09:37:45.525Z,99811.59
2023-07-02T09:40:13.381Z,99810.08
2023-07-02T09:42:41.999Z,99806.80
2023-07-02T09:45:11.797Z,99807.75
2023-07-02T09:47:46.078Z,99807.52
2023-07-02T09:50:13.788Z,99801.64
2023-07-02T09:52:41.531Z,99807.70
2023-07-02T09:55:09.727Z,99804.09
2023-07-02T09:57:38.946Z,99803.73
2023-07-02T10:00:09.021Z,99798.86
2023-07-02T10:02:39.754Z,99793.84
2023-07-02T10:05:08.014Z,99788.15
2023-07-02T10:07:35.932Z,99785.42
2023-07-02T10:10:04.167Z,99773.29
2023-07-02T10:12:31.937Z,99763.09
2023-07-02T10:15:00.052Z,99760.86
2023-07-02T10:17:32.853Z,99767.02
2023-07-02T10:20:02.404Z,99770.80
2023-07-02T10:22:30.377Z,99777.48
2023-07-02T10:25:01.533Z,99787.32
2023-07-02T10:27:40.275Z,99792.23
2023-07-02T10:30:09.578Z,99797.52
2023-07-02T10:32:39.588Z,99795.88
2023-07-02T10:35:17.978Z,99800.25
2023-07-02T10:37:46.469Z,99798.40
2023-07-02T10:40:14.749Z,99795.44
2023-07-02T10:42:49.778Z,99792.09
2023-07-02T10:45:18.707Z,99790.02
2023-07-02T10:47:47.022Z,99786.09
2023-07-02T10:50:24.595Z,99782.43
2023-07-02T10:52:52.412Z,99777.80
2023-07-02T10:55:20.269Z,99778.57
2023-07-02T10:57:49.763Z,99774.40
2023-07-02T11:00:17.759Z,99775.52
2023-07-02T11:02:45.631Z,99774.65
2023-07-02T11:05:14.183Z,99774.30
2023-07-02T11:07:44.998Z,99775.81
2023-07-02T11:10:19.421Z,99780.51
2023-07-02T11:12:47.144Z,99782.06
2023-07-02T11:15:16.300Z,99781.41
2023-07-02T11:17:44.087Z,99775.86
2023-07-02T11:20:13.415Z,99778.19
2023-07-02T11:22:42.438Z,99773.61
2023-07-02T11:25:23.406Z,99774.01
2023-07-02T11:27:51.103Z,99773.34
2023-07-02T11:30:18.757Z,99774.90
2023-07-02T11:32:54.654Z,99768.91
2023-07-02T11:35:23.092Z,99766.69
2023-07-02T11:37:55.249Z,99771.55
2023-07-02T11:40:22.949Z,99773.09
2023-07-02T11:42:50.670Z,99772.75
2023-07-02T11:45:18.640Z,99774.87
2023-07-02T11:47:46.345Z,99774.57
2023-07-02T11:50:25.296Z,99776.23
2023-07-02T11:52:54.958Z,99775.42
2023-07-02T11:55:23.034Z,99773.44
2023-07-02T11:57:51.080Z,99772.35
2023-07-02T12:00:19.156Z,99771.66
2023-07-02T12:02:46.882Z,99773.59
2023-07-02T12:05:14.800Z,99767.82
2023-07-02T12:07:42.795Z,99767.31
2023-07-02T12:10:10.908Z,99770.50
2023-07-02T12:12:38.607Z,99765.95
2023-07-02T12:15:06.965Z,99760.67
2023-07-02T12:17:34.864Z,99762.48
2023-07-02T12:20:02.601Z,99760.80
2023-07-02T12:22:30.258Z,99760.55
2023-07-02T12:24:58.886Z,99761.32
2023-07-02T12:27:28.427Z,99761.21
2023-07-02T12:29:57.578Z,99763.45
2023-07-02T12:32:25.245Z,99758.14
2023-07-02T12:34:52.966Z,99761.52
2023-07-02T12:37:22.182Z,99758.36
2023-07-02T12:39:49.838Z,99761.09
2023-07-02T12:42:17.510Z,99759.22
2023-07-02T12:44:46.291Z,99762.26
2023-07-02T12:47:14.043Z,99761.90
2023-07-02T12:49:41.705Z,99762.75
2023-07-02T12:52:09.475Z,99763.45
2023-07-02T12:54:37.253Z,99759.58
2023-07-02T12:57:05.521Z,99760.06
2023-07-02T12:59:33.319Z,99758.20
2023-07-02T13:02:01.216Z,99756.19
2023-07-02T13:04:29.897Z,99752.23
2023-07-02T13:06:57.835Z,99753.63
2023-07-02T13:09:25.562Z,99753.10
2023-07-02T13:11:53.235Z,99751.41
2023-07-02T13:14:21.092Z,99748.87
2023-07-02T13:16:49.175Z,99748.98
2023-07-02T13:19:17.248Z,99749.55
2023-07-02T13:21:45.326Z,99746.30
2023-07-02T13:24:13.792Z,99746.45
2023-07-02T13:26:42.639Z,99741.53
2023-07-02T13:29:12.095Z,99742.40
2023-07-02T13:31:39.895Z,99740.34
2023-07-02T13:34:08.765Z,99740.07
2023-07-02T13:36:36.395Z,99740.34
2023-07-02T13:39:04.365Z,99743.31
2023-07-02T13:41:32.138Z,99740.72
2023-07-02T13:43:59.925Z,99738.23
2023-07-02T13:46:28.597Z,99735.16
2023-07-02T13:48:57.063Z,99735.55
2023-07-02T13:51:24.861Z,99734.84
2023-07-02T13:53:52.600Z,99738.33
2023-07-02T13:56:20.368Z,99737.24
2023-07-02T13:59:08.302Z,99736.02
2023-07-02T14:01:36.202Z,99736.70
2023-07-02T14:04:04.760Z,99731.14
2023-07-02T14:06:33.054Z,99729.77
2023-07-02T14:09:00.898Z,99729.15
2023-07-02T14:11:29.169Z,99728.36
2023-07-02T14:13:57.241Z,99726.09
2023-07-02T14:16:25.478Z,99725.76
2023-07-02T14:18:53.402Z,99721.19
2023-07-02T14:21:21.755Z,99721.38
2023-07-02T14:23:49.539Z,99718.95
2023-07-02T14:26:17.900Z,99717.48
2023-07-02T14:28:45.664Z,99720.98
2023-07-02T14:31:13.471Z,99720.34
2023-07-02T14:33:41.703Z,99714.16
2023-07-02T14:36:09.490Z,99719.33
2023-07-02T14:38:37.228Z,99714.88
2023-07-02T14:41:05.336Z,99714.55
2023-07-02T14:43:33.272Z,99714.02
2023-07-02T14:46:02.382Z,99711.18
2023-07-02T14:48:30.131Z,99712.34
2023-07-02T14:50:59.859Z,99709.22
2023-07-02T14:53:28.114Z,99711.10
2023-07-02T14:55:57.216Z,99706.27
2023-07-02T14:58:25.279Z,99704.90
2023-07-02T15:00:55.954Z,99700.96
2023-07-02T15:03:24.691Z,99704.27
2023-07-02T15:05:53.396Z,99700.96
2023-07-02T15:08:22.212Z,99698.72
2023-07-02T15:10:56.019Z,99701.48
2023-07-02T15:13:25.228Z,99702.07
2023-07-02T15:15:53.340Z,99698.25
2023-07-02T15:18:24.131Z,99698.10
2023-07-02T15:20:54.602Z,99697.66
2023-07-02T15:23:22.817Z,99693.66
2023-07-02T15:26:01.104Z,99696.23
2023-07-02T15:28:29.307Z,99692.36
2023-07-02T15:31:02.599Z,99693.92
2023-07-02T15:33:30.340Z,99693.30
2023-07-02T15:36:00.784Z,99693.55
2023-07-02T15:38:28.836Z,99696.22
2023-07-02T15:41:08.214Z,99698.61
2023-07-02T15:43:36.492Z,99704.48
2023-07-02T15:46:04.576Z,99702.61
2023-07-02T15:48:32.529Z,99704.55
2023-07-02T15:51:00.254Z,99704.36
2023-07-02T15:53:28.025Z,99706.27
2023-07-02T15:55:59.289Z,99708.45
2023-07-02T15:58:28.146Z,99712.59
2023-07-02T16:00:55.924Z,99712.41
2023-07-02T16:03:24.597Z,99718.16
2023-07-02T16:05:58.622Z,99714.40
2023-07-02T16:08:27.501Z,99718.25
2023-07-02T16:10:55.294Z,99716.82
2023-07-02T16:13:23.134Z,99718.01
2023-07-02T16:15:51.099Z,99720.18
2023-07-02T16:18:19.008Z,99723.22
2023-07-02T16:20:57.440Z,99721.93
2023-07-02T16:23:25.365Z,99721.86
2023-07-02T16:26:04.990Z,99723.22
2023-07-02T16:28:34.250Z,99725.89
2023-07-02T16:31:02.391Z,99729.45
2023-07-02T16:33:34.880Z,99731.39
2023-07-02T16:36:13.153Z,99734.82
2023-07-02T16:38:41.019Z,99733.61
2023-07-02T16:41:08.680Z,99732.74
2023-07-02T16:43:36.646Z,99735.52
2023-07-02T16:46:04.599Z,99733.16
2023-07-02T16:48:32.383Z,99734.35
2023-07-02T16:51:05.923Z,99736.59
2023-07-02T16:53:33.544Z,99734.77
2023-07-02T16:56:01.821Z,99737.61
2023-07-02T16:58:30.525Z,99736.48
2023-07-02T17:01:12.038Z,99735.26
2023-07-02T17:03:40.057Z,99734.73
2023-07-02T17:06:08.063Z,99735.53
2023-07-02T17:08:40.153Z,99734.39
2023-07-02T17:11:09.397Z,99735.39
2023-07-02T17:13:37.605Z,99734.65
2023-07-02T17:16:06.163Z,99740.41
2023-07-02T17:18:34.541Z,99740.55
2023-07-02T17:21:02.403Z,99740.47
2023-07-02T17:23:30.164Z,99739.15
2023-07-02T17:26:02.817Z,99741.50
2023-07-02T17:28:32.248Z,99742.70
2023-07-02T17:31:01.520Z,99744.09
2023-07-02T17:33:29.419Z,99748.02
2023-07-02T17:35:57.383Z,99749.19
2023-07-02T17:38:25.287Z,99748.55
2023-07-02T17:40:53.223Z,99746.21
2023-07-02T17:43:21.319Z,99748.43
2023-07-02T17:45:56.133Z,99753.66
2023-07-02T17:48:26.044Z,99756.56
2023-07-02T17:50:55.929Z,99754.98
2023-07-02T17:53:23.914Z,99754.79
2023-07-02T17:55:52.001Z,99754.58
2023-07-02T17:58:20.182Z,99757.45
2023-07-02T18:00:51.915Z,99760.23
2023-07-02T18:03:20.327Z,99765.27
2023-07-02T18:05:49.296Z,99763.77
2023-07-02T18:08:17.779Z,99766.33
2023-07-02T18:10:50.156Z,99775.70
2023-07-02T18:13:18.219Z,99776.79
2023-07-02T18:15:46.325Z,99780.56
2023-07-02T18:18:14.465Z,99783.68
2023-07-02T18:20:43.520Z,99790.17
2023-07-02T18:23:11.753Z,99791.15
2023-07-02T18:25:39.698Z,99792.70
2023-07-02T18:28:11.360Z,99795.53
2023-07-02T18:30:46.291Z,99800.34
2023-07-02T18:33:13.955Z,99804.95
2023-07-02T18:35:42.785Z,99807.04
2023-07-02T18:38:10.811Z,99809.04
2023-07-02T18:40:38.588Z,99812.01
2023-07-02T18:43:06.251Z,99819.46
2023-07-02T18:45:34.410Z,99820.12
2023-07-02T18:48:02.715Z,99820.94
2023-07-02T18:50:30.657Z,99824.70
2023-07-02T18:52:58.666Z,99828.05
2023-07-02T18:55:26.494Z,99829.03
2023-07-02T18:57:54.457Z,99834.90
2023-07-02T19:00:22.259Z,99834.13
2023-07-02T19:02:50.569Z,99837.95
2023-07-02T19:05:19.032Z,99837.34
2023-07-02T19:07:46.852Z,99846.24
2023-07-02T19:10:17.078Z,99844.40
2023-07-02T19:12:46.793Z,99847.92
2023-07-02T19:15:14.750Z,99846.04
2023-07-02T19:17:43.520Z,99850.09
2023-07-02T19:20:11.955Z,99853.89
2023-07-02T19:22:39.908Z,99850.29
2023-07-02T19:25:08.679Z,99855.20
2023-07-02T19:27:36.947Z,99863.97
2023-07-02T19:30:06.684Z,99868.27
2023-07-02T19:32:38.286Z,99866.31
2023-07-02T19:35:10.098Z,99867.22
2023-07-02T19:37:37.961Z,99868.42
2023-07-02T19:40:08.204Z,99863.45
2023-07-02T19:42:36.033Z,99866.09
2023-07-02T19:45:03.899Z,99865.49
2023-07-02T19:47:32.189Z,99869.75
2023-07-02T19:50:00.772Z,99871.92
2023-07-02T19:52:29.748Z,99874.37
2023-07-02T19:55:03.460Z,99876.20
2023-07-02T19:57:31.133Z,99874.98
2023-07-02T20:00:01.977Z,99874.88
2023-07-02T20:02:37.807Z,99875.08
2023-07-02T20:05:07.245Z,99875.87
2023-07-02T20:07:35.686Z,99875.77
2023-07-02T20:10:07.549Z,99882.27
2023-07-02T20:12:38.103Z,99880.31
2023-07-02T20:15:06.963Z,99881.09
2023-07-02T20:17:35.488Z,99881.23
2023-07-02T20:20:05.578Z,99886.03
2023-07-02T20:22:33.535Z,99884.20
2023-07-02T20:25:24.936Z,99883.95
2023-07-02T20:27:48.952Z,99887.14
2023-07-02T20:30:16.795Z,99891.38
2023-07-02T20:32:44.936Z,99892.59
2023-07-02T20:35:12.936Z,99885.83
2023-07-02T20:37:40.606Z,99887.17
2023-07-02T20:40:14.503Z,99881.70
2023-07-02T20:42:42.581Z,99882.88
2023-07-02T20:45:13.313Z,99886.89
2023-07-02T20:47:42.566Z,99884.60
2023-07-02T20:50:12.252Z,99885.04
2023-07-02T20:52:40.907Z,99881.48
2023-07-02T20:55:09.217Z,99885.88
2023-07-02T20:57:36.988Z,99892.78
2023-07-02T21:00:12.549Z,99894.52
2023-07-02T21:02:41.415Z,99900.36
2023-07-02T21:05:09.668Z,99902.88
2023-07-02T21:07:37.333Z,99902.98
2023-07-02T21:10:06.336Z,99900.36
2023-07-02T21:12:34.086Z,99905.30
2023-07-02T21:15:02.059Z,99907.35
2023-07-02T21:17:29.852Z,99911.63
2023-07-02T21:19:57.813Z,99909.61
2023-07-02T21:22:25.549Z,99910.89
2023-07-02T21:24:53.316Z,99914.84
2023-07-02T21:27:22.333Z,99915.04
2023-07-02T21:29:55.853Z,99916.51
2023-07-02T21:32:24.105Z,99919.59
2023-07-02T21:34:53.806Z,99918.89
2023-07-02T21:37:22.082Z,99919.47
2023-07-02T21:39:49.836Z,99923.20
2023-07-02T21:42:17.628Z,99922.27
2023-07-02T21:44:45.363Z,99920.77
2023-07-02T21:47:13.374Z,99915.23
2023-07-02T21:49:41.099Z,99915.84
2023-07-02T21:52:08.865Z,99918.20
2023-07-02T21:54:36.654Z,99919.11
2023-07-02T21:57:05.103Z,99915.55
2023-07-02T21:59:32.799Z,99920.10
2023-07-02T22:02:00.460Z,99914.16
2023-07-02T22:04:28.277Z,99914.89
2023-07-02T22:06:57.593Z,99914.48
2023-07-02T22:09:25.256Z,99917.09
2023-07-02T22:11:52.927Z,99919.21
2023-07-02T22:14:20.579Z,99921.53
2023-07-02T22:16:48.307Z,99920.42
2023-07-02T22:19:15.897Z,99919.16
2023-07-02T22:21:46.137Z,99920.45
2023-07-02T22:24:13.993Z,99923.69
2023-07-02T22:26:41.677Z,99924.36
2023-07-02T22:29:09.439Z,99928.66
2023-07-02T22:31:37.136Z,99928.88
2023-07-02T22:34:04.876Z,99932.56
2023-07-02T22:36:32.611Z,99932.66
2023-07-02T22:39:00.334Z,99934.06
2023-07-02T22:41:28.036Z,99934.98
2023-07-02T22:43:56.006Z,99935.82
2023-07-02T22:46:23.714Z,99938.36
2023-07-02T22:48:51.338Z,99945.00
2023-07-02T22:51:19.118Z,99944.11
2023-07-02T22:53:47.062Z,99945.78
2023-07-02T22:56:16.782Z,99947.72
2023-07-02T22:58:44.754Z,99946.09
2023-07-02T23:01:13.961Z,99943.65
2023-07-02T23:03:42.067Z,99948.64
2023-07-02T23:06:10.082Z,99948.84
2023-07-02T23:08:37.881Z,99949.80
2023-07-02T23:11:05.508Z,99955.77
2023-07-02T23:13:33.170Z,99957.09
2023-07-02T23:16:04.187Z,99954.31
2023-07-02T23:18:35.842Z,99952.77
2023-07-02T23:21:04.245Z,99954.02
2023-07-02T23:23:32.006Z,99959.74
2023-07-02T23:25:59.775Z,99956.67
2023-07-02T23:28:27.552Z,99957.09
2023-07-02T23:30:55.224Z,99957.17
2023-07-02T23:33:23.308Z,99957.77
2023-07-02T23:35:51.230Z,99954.97
2023-07-02T23:38:19.714Z,99959.50
2023-07-02T23:40:47.997Z,99961.16
2023-07-02T23:43:15.692Z,99961.99
2023-07-02T23:45:43.540Z,99963.41
2023-07-02T23:48:11.287Z,99963.90
2023-07-02T23:50:39.192Z,99963.69
2023-07-02T23:53:07.223Z,99965.11
2023-07-02T23:55:35.194Z,99957.02
2023-07-02T23:58:02.869Z,99953.42
